Time;durP1;ratioP1;P1;durP2;ratioP2;P2;SDS_P1;SDS_P2;PMS_P1;PMS_P2;Temp;Humidity;BMP_temperature;BMP_pressure;BME280_temperature;BME280_humidity;BME280_pressure;Samples;Min_cycle;Max_cycle;Signal;HPM_P1;HPM_P2
2022/11/03 00:01:51;;;;;;;107.10;34.73;;;;;;;;;;5039755;28;20029;-67
2022/11/03 00:04:18;;;;;;;112.43;36.83;;;;;;;;;;5037418;28;20052;-68
2022/11/03 00:06:44;;;;;;;113.43;36.05;;;;;;;;;;5034610;28;20048;-67
2022/11/03 00:09:10;;;;;;;119.00;38.10;;;;;;;;;;5034652;28;20112;-67
2022/11/03 00:11:37;;;;;;;111.03;35.40;;;;;;;;;;5033418;28;20045;-71
2022/11/03 00:14:02;;;;;;;123.20;34.65;;;;;;;;;;5037185;28;20037;-71
2022/11/03 00:16:28;;;;;;;110.18;34.92;;;;;;;;;;5088561;28;20046;-73
2022/11/03 00:18:53;;;;;;;105.45;35.33;;;;;;;;;;5092353;27;20091;-72
2022/11/03 00:21:19;;;;;;;105.70;35.30;;;;;;;;;;5090383;28;20032;-71
2022/11/03 00:23:44;;;;;;;109.25;33.50;;;;;;;;;;5108148;27;20034;-71
2022/11/03 00:26:14;;;;;;;111.00;34.92;;;;;;;;;;5091244;28;20460;-70
2022/11/03 00:28:39;;;;;;;;;;;;;;;;;;5109534;27;20034;-70
2022/11/03 00:31:06;;;;;;;104.80;32.10;;;;;;;;;;5114197;27;20046;-70
2022/11/03 00:33:31;;;;;;;112.72;35.05;;;;;;;;;;5096772;27;20027;-71
2022/11/03 00:35:58;;;;;;;100.43;33.78;;;;;;;;;;5110197;27;20023;-71
2022/11/03 00:38:24;;;;;;;108.97;32.80;;;;;;;10.69;nan;101373.69;5105248;28;20415;-71
2022/11/03 00:43:36;;;;;;;90.55;32.35;;;;;;;;;;5108178;27;20030;-72
2022/11/03 00:46:04;;;;;;;91.40;30.77;;;;;;;;;;5108776;27;20031;-70
2022/11/03 00:48:29;;;;;;;88.47;30.90;;;;;;;;;;5092499;28;20053;-71
2022/11/03 00:51:11;;;;;;;88.90;29.80;;;;;;;;;;5097289;28;20065;-71
2022/11/03 00:53:55;;;;;;;86.05;29.88;;;;;;;;;;5100088;27;20484;-70
2022/11/03 00:56:22;;;;;;;86.22;30.60;;;;;;;;;;5108900;27;20035;-71
2022/11/03 01:01:33;;;;;;;88.68;31.45;;;;;;;;;;5113308;27;20047;-71
2022/11/03 01:06:50;;;;;;;89.72;31.33;;;;;;;;;;5107873;28;20080;-70
2022/11/03 01:09:16;;;;;;;97.60;30.58;;;;;;;;;;5109194;27;20118;-70
2022/11/03 01:11:45;;;;;;;91.45;30.15;;;;;;;;;;5080518;28;20119;-73
2022/11/03 01:14:12;;;;;;;92.78;29.25;;;;;;;;;;5111222;28;20059;-71
2022/11/03 01:16:37;;;;;;;83.20;29.05;;;;;;;;;;5089289;28;20225;-70
2022/11/03 01:19:03;;;;;;;92.70;30.70;;;;;;;;;;5094551;28;20118;-71
2022/11/03 01:21:28;;;;;;;91.45;30.95;;;;;;;;;;5109292;28;20091;-69
2022/11/03 01:23:53;;;;;;;89.40;30.65;;;;;;;;;;5104697;28;20045;-71
2022/11/03 01:26:19;;;;;;;88.25;30.13;;;;;;;;;;5101731;28;20400;-72
2022/11/03 01:28:46;;;;;;;92.50;31.05;;;;;;;10.65;nan;101377.72;5109866;28;20028;-71
2022/11/03 01:31:15;;;;;;;90.60;30.48;;;;;;;;;;5106662;28;20102;-70
2022/11/03 01:33:41;;;;;;;88.32;30.20;;;;;;;;;;5105271;28;20082;-71
2022/11/03 01:36:06;;;;;;;88.50;30.08;;;;;;;;;;5108444;28;20377;-72
2022/11/03 01:38:33;;;;;;;83.82;28.27;;;;;;;;;;5108275;28;20023;-72
2022/11/03 01:40:59;;;;;;;92.05;29.70;;;;;;;10.64;nan;101392.72;5104336;28;20105;-72
2022/11/03 01:43:26;;;;;;;87.50;29.08;;;;;;;;;;5112112;28;20031;-71
2022/11/03 01:46:02;;;;;;;89.30;28.42;;;;;;;;;;5091242;28;20048;-71
2022/11/03 01:48:28;;;;;;;82.30;28.67;;;;;;;;;;5110754;28;20059;-71
2022/11/03 01:50:53;;;;;;;82.00;28.45;;;;;;;;;;5087348;28;20051;-72
2022/11/03 01:53:20;;;;;;;86.87;30.00;;;;;;;10.66;nan;101360.13;5096759;28;20497;-71
2022/11/03 01:55:47;;;;;;;79.45;28.95;;;;;;;;;;5107595;28;20276;-72
2022/11/03 01:58:14;;;;;;;79.78;28.83;;;;;;;;;;5110319;28;20081;-71
2022/11/03 02:00:41;;;;;;;82.15;28.88;;;;;;;;;;5110307;28;20059;-71
2022/11/03 02:03:07;;;;;;;87.40;29.10;;;;;;;;;;5090849;28;20023;-71
2022/11/03 02:05:32;;;;;;;83.75;28.95;;;;;;;;;;5115130;28;20031;-70
2022/11/03 02:08:01;;;;;;;89.05;27.10;;;;;;;;;;5082538;28;20438;-70
2022/11/03 02:10:26;;;;;;;85.43;27.88;;;;;;;;;;5112147;28;20358;-72
2022/11/03 02:12:51;;;;;;;87.50;30.00;;;;;;;;;;5099486;28;20030;-71
2022/11/03 02:15:17;;;;;;;90.97;28.77;;;;;;;;;;5105947;28;20024;-72
2022/11/03 02:17:45;;;;;;;81.00;27.20;;;;;;;;;;5112991;28;20408;-72
2022/11/03 02:20:11;;;;;;;84.60;28.00;;;;;;;;;;5097486;27;20362;-72
2022/11/03 02:22:54;;;;;;;84.90;28.77;;;;;;;;;;5104728;27;20133;-71
2022/11/03 02:25:38;;;;;;;94.40;29.67;;;;;;;;;;5113559;27;20027;-70
2022/11/03 02:28:04;;;;;;;92.30;29.83;;;;;;;;;;5109668;27;20050;-71
2022/11/03 02:30:42;;;;;;;87.72;27.75;;;;;;;;;;5109560;27;20053;-72
2022/11/03 02:33:11;;;;;;;96.85;28.88;;;;;;;;;;5095128;27;20489;-72
2022/11/03 02:35:36;;;;;;;94.20;30.25;;;;;;;;;;5098379;27;20027;-71
2022/11/03 02:38:02;;;;;;;98.37;30.00;;;;;;;;;;5113669;27;20036;-71
2022/11/03 02:40:36;;;;;;;95.72;28.60;;;;;;;;;;5112105;27;20024;-69
2022/11/03 02:43:02;;;;;;;89.55;28.48;;;;;;;;;;5091252;27;20027;-68
2022/11/03 02:45:28;;;;;;;99.50;29.58;;;;;;;;;;5114141;27;20042;-67
2022/11/03 02:47:57;;;;;;;98.78;29.38;;;;;;;;;;5117395;27;20023;-68
2022/11/03 02:50:25;;;;;;;92.88;28.83;;;;;;;;;;5110360;27;20867;-68
2022/11/03 02:52:51;;;;;;;96.68;29.67;;;;;;;;;;5118087;27;20023;-68
2022/11/03 02:55:25;;;;;;;97.20;29.58;;;;;;;;;;5091006;28;20495;-68
2022/11/03 02:57:53;;;;;;;110.22;30.10;;;;;;;;;;5106116;27;20484;-71
2022/11/03 03:00:19;;;;;;;97.57;30.77;;;;;;;;;;5094090;28;20027;-70
2022/11/03 03:02:56;;;;;;;99.60;30.63;;;;;;;;;;5115844;27;20032;-71
2022/11/03 03:05:24;;;;;;;99.03;28.98;;;;;;;;;;5104328;27;20039;-71
2022/11/03 03:07:52;;;;;;;101.15;30.60;;;;;;;;;;5114455;27;20567;-72
2022/11/03 03:10:20;;;;;;;110.22;29.40;;;;;;;;;;5089952;27;20377;-71
2022/11/03 03:12:46;;;;;;;94.78;29.10;;;;;;;;;;5119296;27;20039;-72
2022/11/03 03:15:12;;;;;;;108.57;30.70;;;;;;;;;;5109871;27;20157;-71
2022/11/03 03:17:45;;;;;;;108.13;30.27;;;;;;;;;;5079642;28;20106;-71
2022/11/03 03:20:15;;;;;;;124.25;31.83;;;;;;;;;;5109280;27;20032;-71
2022/11/03 03:22:52;;;;;;;114.45;31.30;;;;;;;;;;5110457;27;20057;-72
2022/11/03 03:25:49;;;;;;;117.40;31.40;;;;;;;;;;5113867;27;20160;-72
2022/11/03 03:28:18;;;;;;;118.13;30.92;;;;;;;;;;5047254;27;20102;-71
2022/11/03 03:30:45;;;;;;;121.32;32.15;;;;;;;;;;5114290;27;20062;-71
2022/11/03 03:33:11;;;;;;;122.75;31.10;;;;;;;;;;5110395;27;20050;-72
2022/11/03 03:35:39;;;;;;;109.88;30.60;;;;;;;;;;5101861;27;20027;-71
2022/11/03 03:38:06;;;;;;;116.25;30.90;;;;;;;;;;5093641;27;20130;-71
2022/11/03 03:40:34;;;;;;;116.57;30.08;;;;;;;;;;5091622;28;20043;-71
2022/11/03 03:43:01;;;;;;;116.32;30.35;;;;;;;;;;5108242;27;20024;-72
2022/11/03 03:45:26;;;;;;;127.13;29.83;;;;;;;;;;5096965;28;20030;-72
2022/11/03 03:47:52;;;;;;;111.63;29.98;;;;;;;;;;5096237;28;20046;-72
2022/11/03 03:50:17;;;;;;;104.63;28.93;;;;;;;;;;5116457;27;20385;-72
2022/11/03 03:52:42;;;;;;;110.22;29.35;;;;;;;;;;5107974;27;20024;-72
2022/11/03 03:55:13;;;;;;;117.70;29.50;;;;;;;;;;5113693;27;20058;-71
2022/11/03 03:57:38;;;;;;;105.82;30.00;;;;;;;;;;5110663;27;20062;-72
2022/11/03 04:00:05;;;;;;;112.22;30.90;;;;;;;;;;5091401;28;20564;-72
2022/11/03 04:02:30;;;;;;;123.85;30.65;;;;;;;;;;5114749;27;20142;-70
2022/11/03 04:04:57;;;;;;;116.63;30.60;;;;;;;;;;5108264;27;20098;-70
2022/11/03 04:10:06;;;;;;;110.80;30.95;;;;;;;;;;5113471;27;20042;-73
2022/11/03 04:23:27;;;;;;;125.22;32.13;;;;;;;;;;5105754;27;20031;-72
2022/11/03 04:25:53;;;;;;;124.97;32.23;;;;;;;;;;5105031;27;20028;-71
2022/11/03 04:28:19;;;;;;;134.20;32.72;;;;;;;;;;5093968;28;20276;-72
2022/11/03 04:30:44;;;;;;;336.65;64.03;;;;;;;;;;5096356;28;20114;-71
2022/11/03 04:33:15;;;;;;;218.13;46.42;;;;;;;;;;5107057;28;20031;-72
2022/11/03 04:35:43;;;;;;;171.55;37.50;;;;;;;;;;5112115;27;20438;-73
2022/11/03 04:38:11;;;;;;;150.23;35.30;;;;;;;;;;5099456;28;20032;-71
2022/11/03 04:40:38;;;;;;;146.82;35.30;;;;;;;;;;5108654;27;20166;-72
2022/11/03 04:43:03;;;;;;;150.13;34.42;;;;;;;;;;5089838;28;20020;-71
2022/11/03 04:45:30;;;;;;;141.70;35.20;;;;;;;;;;5086170;28;20027;-70
2022/11/03 04:47:57;;;;;;;143.50;34.60;;;;;;;;;;5084930;27;20507;-72
2022/11/03 04:50:23;;;;;;;147.43;35.83;;;;;;;;;;5103891;27;20042;-73
2022/11/03 04:52:53;;;;;;;166.95;37.03;;;;;;;;;;5110305;27;20520;-72
2022/11/03 04:55:19;;;;;;;138.68;34.25;;;;;;;;;;5109751;27;20042;-72
2022/11/03 04:57:44;;;;;;;149.88;35.75;;;;;;;;;;5090454;27;20646;-71
2022/11/03 05:00:18;;;;;;;150.68;36.22;;;;;;;;;;5107445;27;20036;-73
2022/11/03 05:02:45;;;;;;;141.40;35.53;;;;;;;;;;5091710;28;20038;-73
2022/11/03 05:05:21;;;;;;;146.48;34.28;;;;;;;;;;5108732;28;20023;-73
2022/11/03 05:07:48;;;;;;;137.50;34.60;;;;;;;;;;5095059;28;20030;-72
2022/11/03 05:10:18;;;;;;;159.43;36.38;;;;;;;;;;5085466;28;20036;-73
2022/11/03 05:12:43;;;;;;;;;;;;;;;;;;5082149;28;20056;-72
2022/11/03 05:15:38;;;;;;;131.00;32.20;;;;;;;;;;5083725;28;19959;-73
2022/11/03 05:18:12;;;;;;;134.07;34.30;;;;;;;;;;5065053;28;20486;-73
2022/11/03 05:20:45;;;;;;;136.65;34.95;;;;;;;;;;5084640;28;20382;-73
2022/11/03 05:23:10;;;;;;;137.52;35.78;;;;;;;;;;5085691;28;20032;-73
2022/11/03 05:25:44;;;;;;;138.18;35.30;;;;;;;;;;5073901;28;20137;-73
2022/11/03 05:28:17;;;;;;;140.45;35.97;;;;;;;;;;5090002;28;20028;-71
2022/11/03 05:30:42;;;;;;;136.25;35.85;;;;;;;;;;5084956;28;20036;-73
2022/11/03 05:33:17;;;;;;;130.73;35.57;;;;;;;;;;5087006;28;20031;-73
2022/11/03 05:35:42;;;;;;;131.63;34.33;;;;;;;;;;5083327;28;20276;-71
2022/11/03 05:38:13;;;;;;;123.93;33.57;;;;;;;;;;5086352;28;20069;-73
2022/11/03 05:40:38;;;;;;;120.40;32.58;;;;;;;;;;5082794;28;20268;-74
2022/11/03 05:43:04;;;;;;;139.97;34.83;;;;;;;;;;5081851;28;20089;-73
2022/11/03 05:45:31;;;;;;;121.37;32.80;;;;;;;;;;5079130;28;20307;-73
2022/11/03 05:47:57;;;;;;;126.70;32.78;;;;;;;;;;5085496;28;20285;-73
2022/11/03 05:50:26;;;;;;;128.20;31.90;;;;;;;;;;5080586;28;20081;-72
2022/11/03 05:53:14;;;;;;;126.95;33.00;;;;;;;;;;5087603;28;20020;-72
2022/11/03 05:55:45;;;;;;;117.97;31.33;;;;;;;;;;5095251;28;20024;-73
2022/11/03 05:58:31;;;;;;;131.07;33.97;;;;;;;;;;5087996;28;20024;-74
2022/11/03 06:01:01;;;;;;;110.32;29.52;;;;;;;;;;5084915;28;20044;-69
2022/11/03 06:03:27;;;;;;;109.50;30.48;;;;;;;;;;5090199;28;20503;-68
2022/11/03 06:05:53;;;;;;;111.82;30.50;;;;;;;;;;5093157;28;20077;-69
2022/11/03 06:08:24;;;;;;;117.75;31.77;;;;;;;;;;5089462;28;20035;-71
2022/11/03 06:10:52;;;;;;;116.85;30.83;;;;;;;;;;5095774;28;20092;-69
2022/11/03 06:13:18;;;;;;;110.07;29.67;;;;;;;;;;5106908;27;20080;-70
2022/11/03 06:15:45;;;;;;;111.20;30.00;;;;;;;;;;5111864;27;20020;-72
2022/11/03 06:18:13;;;;;;;102.45;30.42;;;;;;;;;;5102830;27;20572;-71
2022/11/03 06:20:38;;;;;;;129.88;32.55;;;;;;;;;;5099497;28;20031;-72
2022/11/03 06:23:07;;;;;;;126.65;32.15;;;;;;;;;;5092376;28;20570;-71
2022/11/03 06:25:35;;;;;;;122.53;29.87;;;;;;;;;;5101860;27;20579;-72
2022/11/03 06:28:09;;;;;;;118.45;29.95;;;;;;;;;;5107494;27;20034;-71
2022/11/03 06:30:37;;;;;;;119.60;30.55;;;;;;;;;;5088289;28;20028;-71
2022/11/03 06:33:08;;;;;;;127.17;30.83;;;;;;;;;;5103837;27;20031;-71
2022/11/03 06:35:33;;;;;;;127.82;32.88;;;;;;;;;;5105056;27;20024;-71
2022/11/03 06:38:00;;;;;;;130.48;31.60;;;;;;;;;;5108981;27;20088;-71
2022/11/03 06:40:29;;;;;;;140.48;34.15;;;;;;;;;;5115801;27;20019;-71
2022/11/03 06:42:54;;;;;;;;;;;;;;;;;;5107299;28;20473;-71
2022/11/03 06:45:21;;;;;;;123.43;32.60;;;;;;;;;;5117377;27;20048;-71
2022/11/03 06:47:47;;;;;;;136.52;33.03;;;;;;;;;;5094776;27;20032;-71
2022/11/03 06:50:24;;;;;;;130.48;32.90;;;;;;;;;;5095357;28;20510;-72
2022/11/03 06:52:50;;;;;;;139.98;32.50;;;;;;;;;;5092201;27;20019;-71
2022/11/03 06:55:21;;;;;;;123.68;32.33;;;;;;;;;;5114590;27;20043;-72
2022/11/03 06:57:47;;;;;;;124.78;31.92;;;;;;;;;;5095577;27;20097;-71
2022/11/03 07:00:18;;;;;;;131.60;31.85;;;;;;;;;;5111029;27;20023;-73
2022/11/03 07:03:06;;;;;;;126.47;30.80;;;;;;;;;;5108691;27;20043;-72
2022/11/03 07:05:32;;;;;;;129.43;30.42;;;;;;;;;;5089349;28;20385;-71
2022/11/03 07:07:58;;;;;;;125.05;29.65;;;;;;;;;;5112248;27;20023;-70
2022/11/03 07:10:25;;;;;;;129.05;31.30;;;;;;;;;;5105994;27;20028;-71
2022/11/03 07:12:50;;;;;;;127.35;30.92;;;;;;;;;;5094468;28;20043;-71
2022/11/03 07:15:22;;;;;;;111.63;27.90;;;;;;;;;;5083000;27;20035;-71
2022/11/03 07:17:48;;;;;;;118.60;30.45;;;;;;;;;;5104195;27;20028;-71
2022/11/03 07:20:15;;;;;;;114.63;30.23;;;;;;;;;;5087900;27;20730;-72
2022/11/03 07:22:40;;;;;;;110.97;29.50;;;;;;;;;;5103559;28;20028;-70
2022/11/03 07:25:12;;;;;;;116.45;29.10;;;;;;;;;;5085423;28;20497;-72
2022/11/03 07:27:39;;;;;;;104.25;28.63;;;;;;;;;;5103049;27;20032;-71
2022/11/03 07:30:07;;;;;;;111.63;29.40;;;;;;;;;;5102321;27;20493;-72
2022/11/03 07:32:33;;;;;;;112.35;29.73;;;;;;;;;;5106871;28;20377;-71
2022/11/03 07:35:18;;;;;;;99.97;28.15;;;;;;;;;;5114223;27;20027;-71
2022/11/03 07:37:44;;;;;;;108.63;29.40;;;;;;;;;;5077235;28;20113;-71
2022/11/03 07:40:17;;;;;;;114.30;29.17;;;;;;;;;;5094706;27;20031;-71
2022/11/03 07:42:43;;;;;;;97.95;27.92;;;;;;;;;;5086107;28;20026;-71
2022/11/03 07:45:28;;;;;;;96.28;27.90;;;;;;;;;;5089441;27;20030;-71
2022/11/03 07:47:53;;;;;;;96.10;27.48;;;;;;;;;;5087465;27;20046;-72
2022/11/03 07:50:19;;;;;;;87.20;26.67;;;;;;;;;;5085095;28;20028;-70
2022/11/03 07:52:44;;;;;;;86.72;27.52;;;;;;;;;;5106798;27;20027;-71
2022/11/03 07:55:10;;;;;;;89.30;27.33;;;;;;;;;;5088282;28;20435;-71
2022/11/03 07:57:35;;;;;;;87.65;26.52;;;;;;;;;;5086992;27;20039;-71
2022/11/03 08:00:03;;;;;;;78.85;23.63;;;;;;;;;;5103382;27;20030;-71
2022/11/03 08:02:33;;;;;;;75.25;24.80;;;;;;;;;;5104740;27;20111;-68
2022/11/03 08:04:59;;;;;;;69.97;24.30;;;;;;;;;;5103992;27;20184;-71
2022/11/03 08:07:26;;;;;;;73.00;24.50;;;;;;;;;;5112553;27;20502;-70
2022/11/03 08:09:52;;;;;;;67.90;23.73;;;;;;;;;;5093454;28;20114;-70
2022/11/03 08:12:17;;;;;;;74.10;24.27;;;;;;;;;;5109024;27;20140;-71
2022/11/03 08:14:42;;;;;;;67.17;23.87;;;;;;;;;;5104579;27;20028;-70
2022/11/03 08:17:08;;;;;;;71.82;24.00;;;;;;;;;;5113082;27;20265;-70
2022/11/03 08:19:33;;;;;;;62.90;23.00;;;;;;;;;;5100935;28;20027;-71
2022/11/03 08:22:01;;;;;;;60.72;22.98;;;;;;;;;;5113228;27;20027;-71
2022/11/03 08:24:27;;;;;;;56.05;21.00;;;;;;;;;;5104773;27;20111;-70
2022/11/03 08:26:52;;;;;;;60.37;21.77;;;;;;;10.89;nan;101392.13;5107082;27;20102;-70
2022/11/03 08:29:17;;;;;;;51.80;20.17;;;;;;;;;;5102674;27;20028;-70
2022/11/03 08:31:43;;;;;;;45.50;20.48;;;;;;;;;;5100871;27;20015;-71
2022/11/03 08:34:08;;;;;;;51.40;20.45;;;;;;;;;;5100937;27;20108;-70
2022/11/03 08:36:33;;;;;;;46.80;20.13;;;;;;;;;;5099638;27;20038;-72
2022/11/03 08:38:59;;;;;;;49.57;19.80;;;;;;;;;;5089048;28;20035;-70
2022/11/03 08:41:24;;;;;;;46.53;18.45;;;;;;;;;;5087566;28;20354;-72
2022/11/03 08:43:49;;;;;;;42.53;18.30;;;;;;;;;;5091820;28;20016;-71
2022/11/03 08:46:15;;;;;;;44.37;19.37;;;;;;;11.11;nan;101358.50;5092430;27;20556;-71
2022/11/03 08:48:40;;;;;;;40.17;18.58;;;;;;;;;;5108665;27;20831;-71
2022/11/03 08:51:07;;;;;;;47.58;19.33;;;;;;;;;;5094705;27;20022;-70
2022/11/03 08:53:33;;;;;;;47.60;20.13;;;;;;;;;;5096733;28;20027;-69
2022/11/03 08:55:58;;;;;;;44.33;19.75;;;;;;;;;;5104174;27;20030;-72
2022/11/03 08:58:24;;;;;;;45.40;19.33;;;;;;;;;;5085436;28;20031;-71
2022/11/03 09:00:49;;;;;;;40.05;18.83;;;;;;;;;;5090544;27;20102;-70
2022/11/03 09:03:14;;;;;;;42.28;19.17;;;;;;;;;;5113755;27;20148;-72
2022/11/03 09:05:40;;;;;;;44.75;19.77;;;;;;;;;;5089920;28;20024;-70
2022/11/03 09:08:05;;;;;;;43.78;18.60;;;;;;;;;;5090785;28;20049;-70
2022/11/03 09:10:34;;;;;;;37.65;17.58;;;;;;;;;;5110634;27;20105;-71
2022/11/03 09:12:59;;;;;;;41.40;17.40;;;;;;;;;;5109194;27;20015;-75
2022/11/03 09:15:24;;;;;;;41.90;16.63;;;;;;;;;;5086073;28;20089;-71
2022/11/03 09:17:50;;;;;;;35.37;17.10;;;;;;;;;;5091456;28;20272;-71
2022/11/03 09:20:15;;;;;;;38.13;16.70;;;;;;;;;;5089813;28;20333;-75
2022/11/03 09:22:40;;;;;;;39.80;18.63;;;;;;;;;;5086181;28;20032;-71
2022/11/03 09:25:06;;;;;;;37.72;17.42;;;;;;;;;;5090880;28;20028;-72
2022/11/03 09:27:31;;;;;;;32.70;17.02;;;;;;;;;;5108245;28;20024;-75
2022/11/03 09:29:57;;;;;;;30.30;15.82;;;;;;;;;;5089225;27;20401;-72
2022/11/03 09:32:22;;;;;;;31.63;15.70;;;;;;;;;;5111079;27;20026;-69
2022/11/03 09:34:47;;;;;;;28.88;15.40;;;;;;;;;;5090957;27;20198;-70
2022/11/03 09:37:13;;;;;;;31.83;15.93;;;;;;;;;;5094218;28;20095;-70
2022/11/03 09:39:38;;;;;;;29.40;14.10;;;;;;;;;;5101100;27;20072;-70
2022/11/03 09:42:04;;;;;;;29.23;14.30;;;;;;;;;;5109730;27;20307;-69
2022/11/03 09:44:33;;;;;;;29.00;15.23;;;;;;;;;;5102112;27;20300;-70
2022/11/03 09:46:59;;;;;;;29.15;14.30;;;;;;;;;;5114231;27;20019;-72
2022/11/03 09:49:25;;;;;;;23.25;12.65;;;;;;;;;;5103844;27;20485;-70
2022/11/03 09:51:50;;;;;;;28.70;14.50;;;;;;;;;;5089121;28;20049;-71
2022/11/03 09:54:16;;;;;;;28.00;14.70;;;;;;;;;;5112016;27;20027;-69
2022/11/03 09:56:42;;;;;;;28.70;15.00;;;;;;;;;;5109667;27;20311;-68
2022/11/03 09:59:15;;;;;;;29.35;14.32;;;;;;;;;;5092304;27;20050;-69
2022/11/03 10:01:42;;;;;;;28.77;13.93;;;;;;;;;;5111667;27;20500;-69
2022/11/03 10:04:09;;;;;;;30.33;14.80;;;;;;;;;;5103567;27;20034;-70
2022/11/03 10:06:34;;;;;;;27.08;13.57;;;;;;;;;;5101494;27;20161;-70
2022/11/03 10:08:59;;;;;;;25.67;13.80;;;;;;;;;;5107465;27;20566;-70
2022/11/03 10:11:25;;;;;;;29.77;14.67;;;;;;;;;;5113076;27;20287;-69
2022/11/03 10:13:52;;;;;;;26.45;13.85;;;;;;;;;;5089844;27;20480;-69
2022/11/03 10:16:22;;;;;;;25.40;14.30;;;;;;;;;;5108791;27;20032;-70
2022/11/03 10:18:48;;;;;;;26.88;14.02;;;;;;;;;;5089386;28;20026;-68
2022/11/03 10:21:15;;;;;;;24.17;12.93;;;;;;;;;;5084705;28;20032;-69
2022/11/03 10:23:40;;;;;;;25.42;12.32;;;;;;;;;;5106518;27;20034;-70
2022/11/03 10:26:09;;;;;;;24.17;12.53;;;;;;;;;;5114615;27;20023;-69
2022/11/03 10:28:35;;;;;;;;;;;;;;;;;;5107749;27;20275;-67
2022/11/03 10:31:06;;;;;;;28.63;13.05;;;;;;;;;;5091510;28;20020;-71
2022/11/03 10:33:35;;;;;;;26.70;13.02;;;;;;;;;;5095358;28;20448;-68
2022/11/03 10:36:00;;;;;;;;;;;;;;;;;;5095988;28;20112;-69
2022/11/03 10:38:33;;;;;;;23.60;12.47;;;;;;;;;;5107734;27;19947;-69
2022/11/03 10:41:11;;;;;;;25.98;12.77;;;;;;;;;;5091994;28;20450;-69
2022/11/03 10:43:37;;;;;;;24.30;12.25;;;;;;;;;;5102057;27;20424;-69
2022/11/03 10:46:18;;;;;;;24.63;12.43;;;;;;;;;;5095120;28;20024;-71
2022/11/03 10:48:57;;;;;;;24.70;12.38;;;;;;;;;;5091943;28;20146;-70
2022/11/03 10:51:22;;;;;;;20.70;11.30;;;;;;;;;;5088568;28;20051;-70
2022/11/03 10:53:48;;;;;;;21.92;12.43;;;;;;;;;;5091131;28;20068;-74
2022/11/03 10:56:13;;;;;;;23.30;11.88;;;;;;;;;;5085472;28;20028;-73
2022/11/03 10:58:38;;;;;;;25.00;13.18;;;;;;;;;;5102687;27;20031;-71
2022/11/03 11:01:04;;;;;;;26.17;11.88;;;;;;;;;;5105583;27;20035;-70
2022/11/03 11:03:30;;;;;;;21.70;11.88;;;;;;;;;;5087237;28;20078;-67
2022/11/03 11:05:55;;;;;;;22.08;11.95;;;;;;;;;;5103453;27;20028;-69
2022/11/03 11:08:22;;;;;;;31.10;12.53;;;;;;;;;;5082970;28;20105;-71
2022/11/03 11:10:47;;;;;;;24.05;12.13;;;;;;;;;;5096723;27;20844;-69
2022/11/03 11:13:22;;;;;;;21.33;11.82;;;;;;;;;;5104089;27;20027;-69
2022/11/03 11:16:00;;;;;;;20.98;11.00;;;;;;;;;;5107864;27;20019;-69
2022/11/03 11:18:32;;;;;;;24.92;11.70;;;;;;;;;;5088086;27;20035;-67
2022/11/03 11:20:58;;;;;;;19.80;10.80;;;;;;;;;;5099624;27;20016;-68
2022/11/03 11:23:26;;;;;;;19.40;10.77;;;;;;;;;;5110175;27;20030;-68
2022/11/03 11:26:10;;;;;;;19.60;10.18;;;;;;;;;;5102956;28;20055;-69
2022/11/03 11:28:36;;;;;;;19.75;10.55;;;;;;;;;;5100609;27;20031;-68
2022/11/03 11:31:01;;;;;;;20.30;10.73;;;;;;;;;;5088935;28;20028;-69
2022/11/03 11:33:28;;;;;;;17.70;9.90;;;;;;;;;;5084297;27;20110;-68
2022/11/03 11:35:53;;;;;;;16.30;9.60;;;;;;;;;;5081573;28;20032;-68
2022/11/03 11:38:37;;;;;;;18.33;9.93;;;;;;;;;;5106146;27;20034;-68
2022/11/03 11:41:02;;;;;;;20.83;10.57;;;;;;;;;;5104090;27;20024;-68
2022/11/03 11:43:28;;;;;;;17.67;10.03;;;;;;;;;;5105294;27;20034;-69
2022/11/03 11:46:12;;;;;;;20.98;9.98;;;;;;;;;;5098857;27;20280;-70
2022/11/03 11:48:37;;;;;;;18.23;9.55;;;;;;;;;;5099173;27;20146;-66
2022/11/03 11:51:06;;;;;;;19.35;10.50;;;;;;;;;;5099510;27;20129;-67
2022/11/03 11:53:41;;;;;;;19.23;10.70;;;;;;;;;;5102116;27;20478;-67
2022/11/03 11:56:09;;;;;;;17.35;10.13;;;;;;;;;;5082923;28;20275;-70
2022/11/03 11:58:56;;;;;;;18.83;9.38;;;;;;;;;;5104929;28;20089;-69
2022/11/03 12:01:27;;;;;;;20.02;10.15;;;;;;;;;;5111880;27;20028;-70
2022/11/03 12:03:57;;;;;;;18.05;9.88;;;;;;;;;;5086871;28;20524;-66
2022/11/03 12:06:36;;;;;;;18.48;10.52;;;;;;;;;;5106725;27;20028;-69
2022/11/03 12:09:28;;;;;;;15.00;9.15;;;;;;;;;;5088860;27;20516;-69
2022/11/03 12:11:54;;;;;;;17.15;10.07;;;;;;;;;;5110668;27;20048;-70
2022/11/03 12:14:26;;;;;;;18.45;10.57;;;;;;;;;;5096641;27;20042;-69
2022/11/03 12:17:12;;;;;;;16.83;9.82;;;;;;;;;;5112389;27;20068;-67
2022/11/03 12:19:44;;;;;;;17.83;10.10;;;;;;;;;;5085677;27;20019;-69
2022/11/03 12:22:12;;;;;;;17.20;9.95;;;;;;;;;;5090932;27;20576;-69
2022/11/03 12:24:52;;;;;;;15.90;9.20;;;;;;;;;;5102163;28;20024;-67
2022/11/03 12:27:23;;;;;;;18.98;9.52;;;;;;;;;;5107202;27;20114;-70
2022/11/03 12:29:58;;;;;;;17.38;9.70;;;;;;;;;;5092019;27;20058;-70
2022/11/03 12:32:24;;;;;;;18.92;9.77;;;;;;;;;;5105559;27;20024;-69
2022/11/03 12:34:49;;;;;;;19.85;9.20;;;;;;;;;;5102331;27;20142;-68
2022/11/03 12:37:15;;;;;;;18.70;9.10;;;;;;;;;;5081670;28;20111;-69
2022/11/03 12:39:40;;;;;;;19.52;10.25;;;;;;;;;;5091420;28;20272;-69
2022/11/03 12:42:06;;;;;;;15.85;8.70;;;;;;;;;;5081335;28;20024;-66
2022/11/03 12:44:31;;;;;;;18.38;9.73;;;;;;;;;;5082505;27;20027;-68
2022/11/03 12:46:56;;;;;;;17.70;9.97;;;;;;;;;;5109351;27;20160;-69
2022/11/03 12:49:22;;;;;;;14.63;9.13;;;;;;;;;;5108776;27;20023;-69
2022/11/03 12:51:47;;;;;;;14.88;9.32;;;;;;;;;;5096017;28;20303;-69
2022/11/03 12:54:12;;;;;;;16.50;9.48;;;;;;;;;;5085820;28;20049;-69
2022/11/03 12:56:38;;;;;;;17.33;9.23;;;;;;;;;;5101124;27;20035;-68
2022/11/03 12:59:03;;;;;;;17.57;9.10;;;;;;;;;;5105502;27;20028;-68
2022/11/03 13:01:28;;;;;;;14.80;8.90;;;;;;;;;;5086187;28;20278;-71
2022/11/03 13:03:54;;;;;;;14.68;8.45;;;;;;;;;;5081722;28;20027;-71
2022/11/03 13:06:19;;;;;;;19.33;9.23;;;;;;;;;;5092807;28;20030;-69
2022/11/03 13:08:46;;;;;;;13.77;8.77;;;;;;;;;;5086160;28;20023;-71
2022/11/03 13:13:58;;;;;;;16.67;9.32;;;;;;;;;;5105220;28;20047;-69
2022/11/03 13:16:23;;;;;;;18.17;9.23;;;;;;;;;;5099314;28;20039;-70
2022/11/03 13:18:48;;;;;;;16.87;9.03;;;;;;;;;;5108487;28;20060;-71
2022/11/03 13:21:13;;;;;;;15.10;9.05;;;;;;;;;;5105215;28;20119;-69
2022/11/03 13:23:39;;;;;;;14.98;9.13;;;;;;;;;;5088066;28;20048;-69
2022/11/03 13:26:04;;;;;;;18.45;9.45;;;;;;;;;;5110918;28;20073;-68
2022/11/03 13:28:30;;;;;;;16.83;8.82;;;;;;;;;;5094733;28;20031;-70
2022/11/03 13:30:55;;;;;;;21.85;9.65;;;;;;;;;;5103491;28;20020;-70
2022/11/03 13:33:20;;;;;;;17.55;10.02;;;;;;;;;;5092754;28;20546;-69
2022/11/03 13:35:46;;;;;;;16.50;9.43;;;;;;;;;;5091480;28;20023;-69
2022/11/03 13:38:11;;;;;;;20.53;9.97;;;;;;;;;;5105109;28;20039;-72
2022/11/03 13:40:36;;;;;;;20.03;11.13;;;;;;;;;;5089545;28;20923;-69
2022/11/03 13:43:01;;;;;;;19.60;10.27;;;;;;;;;;5105910;28;20311;-69
2022/11/03 13:45:27;;;;;;;23.13;11.67;;;;;;;;;;5107494;28;20640;-70
2022/11/03 13:47:52;;;;;;;21.43;10.20;;;;;;;;;;5104463;28;20028;-72
2022/11/03 13:50:17;;;;;;;21.80;10.27;;;;;;;;;;5101684;28;20272;-70
2022/11/03 13:52:43;;;;;;;17.80;11.02;;;;;;;;;;5089496;28;20363;-68
2022/11/03 13:55:08;;;;;;;25.45;10.75;;;;;;;;;;5106791;28;20472;-71
2022/11/03 13:57:33;;;;;;;22.88;10.68;;;;;;;;;;5103131;28;20035;-70
2022/11/03 13:59:59;;;;;;;20.60;10.33;;;;;;;;;;5106193;28;20112;-68
2022/11/03 14:02:24;;;;;;;19.60;10.50;;;;;;;;;;5091668;28;20028;-68
2022/11/03 14:04:49;;;;;;;18.50;10.77;;;;;;;;;;5103269;28;20027;-71
2022/11/03 14:07:15;;;;;;;19.15;10.52;;;;;;;;;;5090651;28;20027;-71
2022/11/03 14:09:40;;;;;;;17.77;10.70;;;;;;;;;;5086133;28;20026;-71
2022/11/03 14:14:49;;;;;;;22.58;10.98;;;;;;;;;;5110133;27;20041;-72
2022/11/03 14:17:14;;;;;;;20.05;10.18;;;;;;;;;;5095659;28;20027;-72
2022/11/03 14:19:40;;;;;;;23.90;11.23;;;;;;;;;;5108381;27;20477;-71
2022/11/03 14:22:05;;;;;;;20.77;11.30;;;;;;;;;;5090135;27;20668;-72
2022/11/03 14:24:30;;;;;;;23.77;11.83;;;;;;;;;;5117751;27;20279;-72
2022/11/03 14:26:55;;;;;;;23.30;11.90;;;;;;;;;;5084907;28;20119;-72
2022/11/03 14:29:21;;;;;;;21.10;11.30;;;;;;;;;;5096447;28;20279;-71
2022/11/03 14:31:46;;;;;;;19.70;10.90;;;;;;;;;;5107248;27;20051;-71
2022/11/03 14:34:11;;;;;;;19.33;10.52;;;;;;;;;;5106761;27;20760;-71
2022/11/03 14:36:37;;;;;;;22.95;10.95;;;;;;;;;;5091483;27;20488;-71
2022/11/03 14:39:02;;;;;;;21.05;10.65;;;;;;;;;;5103464;28;20561;-69
2022/11/03 14:44:12;;;;;;;28.17;11.68;;;;;;;;;;5106518;27;20026;-69
2022/11/03 14:46:37;;;;;;;22.03;11.17;;;;;;;;;;5108184;27;20405;-69